createdAt,value
2018-04-14T00:00:10.393Z,49.80
2018-04-14T00:02:40.103Z,50.07
2018-04-14T00:05:08.889Z,47.93
2018-04-14T00:07:38.069Z,49.03
2018-04-14T00:10:07.340Z,51.67
2018-04-14T00:12:37.072Z,48.00
2018-04-14T00:15:06.110Z,50.40
2018-04-14T00:17:34.886Z,54.90
2018-04-14T00:20:03.504Z,51.33
2018-04-14T00:22:32.609Z,49.60
2018-04-14T00:25:00.920Z,48.10
2018-04-14T00:27:29.287Z,56.33
2018-04-14T00:29:58.429Z,45.57
2018-04-14T00:32:27.673Z,44.77
2018-04-14T00:34:55.972Z,45.07
2018-04-14T00:37:25.074Z,44.10
2018-04-14T00:39:53.388Z,44.37
2018-04-14T00:42:21.687Z,41.93
2018-04-14T00:44:50.243Z,41.70
2018-04-14T00:47:18.958Z,45.43
2018-04-14T00:49:47.590Z,52.17
2018-04-14T00:52:16.145Z,45.53
2018-04-14T00:54:45.544Z,45.27
2018-04-14T00:57:14.450Z,45.47
2018-04-14T00:59:43.123Z,50.50
2018-04-14T01:02:12.515Z,48.83
2018-04-14T01:04:42.132Z,45.10
2018-04-14T01:07:11.813Z,44.30
2018-04-14T01:09:40.431Z,45.37
2018-04-14T01:12:09.153Z,42.23
2018-04-14T01:14:38.391Z,41.80
2018-04-14T01:17:08.047Z,39.87
2018-04-14T01:19:37.421Z,39.40
2018-04-14T01:22:06.533Z,40.60
2018-04-14T01:24:35.616Z,40.90
2018-04-14T01:27:04.263Z,39.93
2018-04-14T01:29:32.794Z,41.17
2018-04-14T01:32:01.282Z,39.93
2018-04-14T01:34:30.549Z,37.87
2018-04-14T01:36:58.929Z,37.40
2018-04-14T01:39:28.032Z,40.05
2018-04-14T01:41:56.365Z,37.03
2018-04-14T01:44:24.722Z,35.30
2018-04-14T01:46:53.016Z,36.03
2018-04-14T01:49:21.395Z,32.53
2018-04-14T01:51:49.701Z,33.17
2018-04-14T01:54:18.217Z,34.77
2018-04-14T01:56:46.920Z,31.67
2018-04-14T01:59:16.245Z,30.63
2018-04-14T02:01:44.772Z,31.67
2018-04-14T02:04:13.376Z,30.20
2018-04-14T02:06:41.878Z,31.47
2018-04-14T02:09:11.089Z,32.73
2018-04-14T02:11:41.017Z,34.47
2018-04-14T02:14:10.046Z,31.40
2018-04-14T02:16:38.854Z,32.00
2018-04-14T02:19:08.618Z,31.57
2018-04-14T02:21:38.609Z,29.70
2018-04-14T02:24:07.787Z,28.40
2018-04-14T02:26:38.052Z,28.60
2018-04-14T02:29:07.310Z,28.27
2018-04-14T02:31:37.299Z,27.03
2018-04-14T02:34:06.210Z,29.23
2018-04-14T02:36:35.120Z,28.80
2018-04-14T02:39:03.620Z,26.10
2018-04-14T02:41:32.436Z,27.23
2018-04-14T02:44:00.893Z,28.83
2018-04-14T02:46:29.483Z,27.50
2018-04-14T02:48:57.941Z,29.37
2018-04-14T02:51:27.049Z,29.97
2018-04-14T02:53:55.417Z,29.33
2018-04-14T02:56:25.254Z,30.00
2018-04-14T02:58:53.610Z,28.87
2018-04-14T03:01:21.905Z,30.07
2018-04-14T03:03:50.242Z,30.77
2018-04-14T03:06:19.723Z,31.03
2018-04-14T03:08:48.273Z,36.95
2018-04-14T03:11:16.893Z,36.13
2018-04-14T03:13:45.354Z,32.90
2018-04-14T03:16:14.725Z,32.00
2018-04-14T03:18:44.002Z,34.95
2018-04-14T03:21:12.659Z,32.20
2018-04-14T03:23:41.374Z,28.53
2018-04-14T03:26:10.797Z,27.53
2018-04-14T03:28:39.886Z,28.07
2018-04-14T03:31:08.710Z,25.10
2018-04-14T03:33:37.727Z,26.10
2018-04-14T03:36:06.798Z,26.40
2018-04-14T03:38:36.242Z,23.67
2018-04-14T03:41:04.966Z,26.70
2018-04-14T03:43:33.463Z,26.07
2018-04-14T03:46:02.898Z,28.10
2018-04-14T03:48:31.254Z,25.87
2018-04-14T03:50:59.553Z,27.20
2018-04-14T03:53:27.854Z,32.10
2018-04-14T03:55:56.159Z,32.40
2018-04-14T03:58:24.475Z,28.80
2018-04-14T04:00:52.833Z,32.63
2018-04-14T04:03:21.133Z,28.60
2018-04-14T04:05:49.868Z,29.67
2018-04-14T04:08:19.203Z,31.77
2018-04-14T04:10:47.779Z,27.07
2018-04-14T04:13:16.237Z,30.00
2018-04-14T04:15:44.753Z,32.03
2018-04-14T04:18:13.545Z,29.50
2018-04-14T04:20:57.558Z,31.03
2018-04-14T04:23:38.057Z,32.80
2018-04-14T04:26:08.074Z,36.37
2018-04-14T04:28:37.791Z,41.40
2018-04-14T04:31:07.265Z,39.30
2018-04-14T04:33:36.260Z,35.80
2018-04-14T04:36:05.618Z,31.80
2018-04-14T04:38:34.157Z,31.17
2018-04-14T04:41:02.549Z,31.07
2018-04-14T04:43:30.704Z,27.87
2018-04-14T04:45:59.858Z,29.67
2018-04-14T04:48:28.310Z,29.90
2018-04-14T04:50:56.484Z,35.10
2018-04-14T04:53:24.564Z,37.63
2018-04-14T04:55:52.684Z,35.63
2018-04-14T04:58:21.528Z,37.00
2018-04-14T05:00:49.640Z,39.43
2018-04-14T05:03:18.117Z,37.60
2018-04-14T05:05:46.949Z,43.23
2018-04-14T05:08:15.467Z,38.10
2018-04-14T05:10:44.005Z,35.30
2018-04-14T05:13:12.574Z,36.33
2018-04-14T05:15:41.440Z,36.03
2018-04-14T05:18:10.096Z,35.77
2018-04-14T05:20:39.052Z,36.40
2018-04-14T05:23:08.711Z,35.87
2018-04-14T05:25:39.134Z,38.27
2018-04-14T05:28:08.051Z,36.73
2018-04-14T05:30:37.385Z,38.27
2018-04-14T05:33:06.300Z,43.30
2018-04-14T05:35:35.481Z,39.27
2018-04-14T05:38:04.076Z,38.13
2018-04-14T05:40:33.027Z,35.90
2018-04-14T05:43:01.357Z,37.27
2018-04-14T05:45:29.489Z,29.87
2018-04-14T05:47:57.566Z,28.13
2018-04-14T05:50:25.693Z,24.37
2018-04-14T05:52:54.521Z,24.90
2018-04-14T05:55:22.593Z,25.30
2018-04-14T05:57:52.402Z,26.10
2018-04-14T06:00:20.465Z,21.40
2018-04-14T06:02:48.565Z,21.80
2018-04-14T06:05:17.686Z,20.33
2018-04-14T06:07:46.385Z,21.50
2018-04-14T06:10:15.142Z,21.70
2018-04-14T06:12:43.511Z,23.37
2018-04-14T06:15:12.245Z,20.20
2018-04-14T06:17:40.876Z,22.00
2018-04-14T06:20:09.600Z,22.35
2018-04-14T06:22:38.220Z,20.47
2018-04-14T06:25:06.793Z,20.87
2018-04-14T06:27:35.243Z,19.37
2018-04-14T06:30:03.682Z,17.80
2018-04-14T06:32:31.948Z,17.30
2018-04-14T06:35:00.139Z,16.60
2018-04-14T06:37:29.013Z,16.30
2018-04-14T06:39:57.144Z,15.10
2018-04-14T06:42:26.008Z,14.67
2018-04-14T06:44:54.137Z,15.70
2018-04-14T06:47:22.241Z,15.67
2018-04-14T06:49:50.563Z,13.93
2018-04-14T06:52:18.734Z,15.70
2018-04-14T06:54:47.171Z,13.63
2018-04-14T06:57:15.363Z,13.67
2018-04-14T06:59:44.498Z,13.90
2018-04-14T07:02:12.974Z,13.23
2018-04-14T07:04:41.591Z,13.70
2018-04-14T07:07:10.303Z,13.65
2018-04-14T07:09:39.645Z,11.90
2018-04-14T07:12:09.061Z,12.63
2018-04-14T07:14:38.759Z,13.87
2018-04-14T07:17:07.389Z,12.27
2018-04-14T07:19:37.257Z,12.50
2018-04-14T07:22:06.960Z,13.63
2018-04-14T07:24:35.604Z,13.63
2018-04-14T07:27:03.801Z,12.20
2018-04-14T07:29:32.013Z,12.50
2018-04-14T07:32:00.395Z,13.40
2018-04-14T07:34:28.701Z,13.17
2018-04-14T07:36:56.789Z,13.67
2018-04-14T07:39:24.888Z,13.20
2018-04-14T07:41:53.793Z,13.27
2018-04-14T07:44:22.644Z,13.07
2018-04-14T07:46:50.821Z,13.17
2018-04-14T07:49:18.913Z,13.77
2018-04-14T07:51:46.999Z,12.47
2018-04-14T07:54:15.482Z,15.50
2018-04-14T07:56:43.819Z,13.90
2018-04-14T07:59:13.130Z,14.17
2018-04-14T08:01:41.546Z,13.30
2018-04-14T08:04:10.204Z,14.33
2018-04-14T08:06:38.885Z,13.70
2018-04-14T08:09:08.415Z,13.10
2018-04-14T08:11:37.054Z,14.07
2018-04-14T08:14:05.661Z,15.25
2018-04-14T08:16:34.961Z,14.30
2018-04-14T08:19:03.282Z,14.53
2018-04-14T08:21:31.398Z,13.40
2018-04-14T08:23:59.469Z,14.30
2018-04-14T08:26:27.575Z,15.23
2018-04-14T08:28:55.682Z,15.53
2018-04-14T08:31:23.825Z,16.12
2018-04-14T08:33:51.905Z,14.70
2018-04-14T08:36:20.291Z,15.23
2018-04-14T08:38:48.420Z,13.80
2018-04-14T08:41:16.576Z,13.67
2018-04-14T08:43:44.842Z,14.47
2018-04-14T08:46:13.085Z,16.30
2018-04-14T08:48:41.723Z,18.40
2018-04-14T08:51:10.406Z,18.30
2018-04-14T08:53:39.257Z,18.77
2018-04-14T08:56:07.722Z,18.67
2018-04-14T08:58:37.353Z,22.70
2018-04-14T09:01:06.808Z,23.60
2018-04-14T09:03:35.938Z,21.07
2018-04-14T09:06:04.255Z,20.10
2018-04-14T09:08:33.234Z,19.10
2018-04-14T09:11:02.498Z,17.37
2018-04-14T09:13:30.711Z,18.73
2018-04-14T09:15:58.904Z,18.73
2018-04-14T09:18:27.998Z,17.00
2018-04-14T09:20:56.401Z,15.80
2018-04-14T09:23:25.551Z,15.00
2018-04-14T09:25:53.905Z,15.73
2018-04-14T09:28:23.001Z,17.20
2018-04-14T09:30:51.373Z,17.62
2018-04-14T09:33:19.924Z,18.23
2018-04-14T09:35:48.353Z,14.30
2018-04-14T09:38:16.962Z,14.80
2018-04-14T09:40:46.214Z,15.20
2018-04-14T09:43:15.361Z,17.05
2018-04-14T09:45:43.737Z,16.47
2018-04-14T09:48:12.431Z,14.53
2018-04-14T09:50:41.071Z,16.10
2018-04-14T09:53:09.716Z,15.37
2018-04-14T09:55:39.297Z,14.30
2018-04-14T09:58:07.989Z,13.73
2018-04-14T10:00:42.321Z,14.00
2018-04-14T10:03:16.622Z,13.23
2018-04-14T10:05:45.313Z,12.60
2018-04-14T10:08:13.806Z,12.87
2018-04-14T10:10:43.412Z,12.70
2018-04-14T10:13:11.995Z,12.83
2018-04-14T10:15:41.359Z,10.37
2018-04-14T10:18:10.350Z,12.10
2018-04-14T10:20:39.293Z,11.67
2018-04-14T10:23:08.188Z,10.60
2018-04-14T10:25:37.153Z,11.03
2018-04-14T10:28:06.759Z,11.43
2018-04-14T10:30:37.049Z,11.80
2018-04-14T10:33:06.903Z,10.73
2018-04-14T10:35:35.944Z,9.23
2018-04-14T10:38:04.586Z,9.90
2018-04-14T10:40:34.241Z,9.00
2018-04-14T10:43:03.172Z,10.67
2018-04-14T10:45:31.613Z,9.83
2018-04-14T10:48:00.036Z,8.40
2018-04-14T10:50:29.265Z,7.93
2018-04-14T10:52:57.621Z,9.47
2018-04-14T10:55:26.024Z,8.80
2018-04-14T10:57:54.353Z,9.00
2018-04-14T11:00:22.750Z,9.60
2018-04-14T11:02:52.137Z,8.67
2018-04-14T11:05:21.361Z,7.70
2018-04-14T11:07:50.473Z,6.50
2018-04-14T11:10:19.041Z,6.20
2018-04-14T11:12:47.451Z,5.70
2018-04-14T11:15:16.580Z,4.80
2018-04-14T11:17:45.364Z,5.50
2018-04-14T11:20:14.003Z,5.47
2018-04-14T11:22:43.510Z,5.03
2018-04-14T11:25:12.923Z,4.10
2018-04-14T11:27:41.563Z,5.20
2018-04-14T11:30:11.492Z,4.50
2018-04-14T11:32:40.331Z,3.60
2018-04-14T11:35:09.431Z,4.40
2018-04-14T11:37:38.200Z,3.43
2018-04-14T11:40:07.986Z,5.03
2018-04-14T11:42:38.004Z,5.07
2018-04-14T11:45:09.221Z,5.37
2018-04-14T11:47:38.934Z,5.40
2018-04-14T11:50:08.118Z,4.93
2018-04-14T11:52:37.225Z,4.70
2018-04-14T11:55:07.495Z,4.10
2018-04-14T11:57:37.349Z,3.73
2018-04-14T12:00:06.232Z,2.40
2018-04-14T12:02:35.046Z,3.00
2018-04-14T12:05:03.715Z,2.00
2018-04-14T12:07:32.194Z,2.70
2018-04-14T12:10:00.530Z,3.23
2018-04-14T12:12:29.051Z,2.60
2018-04-14T12:14:57.496Z,3.30
2018-04-14T12:17:25.839Z,2.80
2018-04-14T12:19:54.175Z,2.73
2018-04-14T12:22:22.560Z,2.73
2018-04-14T12:24:51.009Z,2.40
2018-04-14T12:27:19.610Z,2.27
2018-04-14T12:29:48.301Z,1.97
2018-04-14T12:32:17.199Z,2.03
2018-04-14T12:34:45.616Z,2.43
2018-04-14T12:37:14.153Z,2.20
2018-04-14T12:39:42.841Z,2.70
2018-04-14T12:42:11.392Z,2.40
2018-04-14T12:44:40.504Z,1.97
2018-04-14T12:47:10.256Z,2.10
2018-04-14T12:49:39.865Z,1.50
2018-04-14T12:52:09.104Z,4.13
2018-04-14T12:54:38.810Z,4.60
2018-04-14T12:57:07.778Z,3.70
2018-04-14T12:59:36.856Z,3.50
2018-04-14T13:02:06.680Z,3.03
2018-04-14T13:04:36.596Z,2.80
2018-04-14T13:07:05.882Z,2.97
2018-04-14T13:09:34.311Z,3.00
2018-04-14T13:12:03.144Z,3.50
2018-04-14T13:14:32.642Z,3.00
2018-04-14T13:17:01.119Z,2.20
2018-04-14T13:19:29.590Z,3.50
2018-04-14T13:21:58.703Z,2.20
2018-04-14T13:24:27.029Z,2.53
2018-04-14T13:26:56.126Z,7.60
2018-04-14T13:29:24.447Z,2.60
2018-04-14T13:31:52.905Z,2.00
2018-04-14T13:34:21.206Z,2.43
2018-04-14T13:36:50.309Z,2.08
2018-04-14T13:39:18.904Z,1.90
2018-04-14T13:41:47.452Z,2.03
2018-04-14T13:44:15.883Z,2.03
2018-04-14T13:46:44.317Z,1.80
2018-04-14T13:49:12.811Z,1.70
2018-04-14T13:51:41.457Z,2.00
2018-04-14T13:54:11.078Z,2.40
2018-04-14T13:56:39.796Z,1.90
2018-04-14T13:59:09.915Z,1.50
2018-04-14T14:01:39.131Z,1.73
2018-04-14T14:04:08.246Z,2.27
2018-04-14T14:06:37.953Z,2.30
2018-04-14T14:09:07.626Z,2.20
2018-04-14T14:11:36.910Z,2.10
2018-04-14T14:14:08.011Z,1.93
2018-04-14T14:16:37.381Z,2.30
2018-04-14T14:19:06.701Z,2.30
2018-04-14T14:21:37.172Z,1.90
2018-04-14T14:24:07.694Z,1.70
2018-04-14T14:26:37.592Z,2.00
2018-04-14T14:29:07.043Z,2.17
2018-04-14T14:31:38.458Z,2.30
2018-04-14T14:34:08.470Z,2.40
2018-04-14T14:36:37.500Z,3.00
2018-04-14T14:39:06.593Z,2.20
2018-04-14T14:41:35.507Z,2.83
2018-04-14T14:44:04.416Z,2.00
2018-04-14T14:46:32.836Z,3.20
2018-04-14T14:49:01.211Z,2.17
2018-04-14T14:51:29.615Z,2.37
2018-04-14T14:53:57.946Z,2.70
2018-04-14T14:56:27.068Z,2.50
2018-04-14T14:58:55.431Z,2.30
2018-04-14T15:01:23.808Z,3.40
2018-04-14T15:03:52.146Z,3.03
2018-04-14T15:06:20.897Z,2.20
2018-04-14T15:08:49.245Z,2.40
2018-04-14T15:11:18.091Z,2.77
2018-04-14T15:13:47.190Z,2.70
2018-04-14T15:16:15.925Z,2.58
2018-04-14T15:18:44.582Z,2.10
2018-04-14T15:21:13.342Z,2.60
2018-04-14T15:23:42.655Z,4.20
2018-04-14T15:26:12.001Z,2.93
2018-04-14T15:28:40.993Z,3.20
2018-04-14T15:31:09.849Z,2.20
2018-04-14T15:33:38.856Z,3.53
2018-04-14T15:36:08.055Z,2.60
2018-04-14T15:38:36.968Z,3.10
2018-04-14T15:41:05.658Z,2.55
2018-04-14T15:43:34.339Z,3.30
2018-04-14T15:46:02.796Z,2.63
2018-04-14T15:48:31.889Z,3.63
2018-04-14T15:51:00.978Z,3.20
2018-04-14T15:53:29.452Z,2.47
2018-04-14T15:55:57.763Z,3.20
2018-04-14T15:58:26.145Z,3.30
2018-04-14T16:00:54.445Z,2.43
2018-04-14T16:03:22.771Z,2.97
2018-04-14T16:05:51.136Z,2.50
2018-04-14T16:08:19.480Z,2.10
2018-04-14T16:10:48.323Z,1.60
2018-04-14T16:13:17.215Z,2.50
2018-04-14T16:15:46.032Z,2.13
2018-04-14T16:18:15.023Z,1.97
2018-04-14T16:20:43.658Z,2.57
2018-04-14T16:23:13.346Z,1.60
2018-04-14T16:25:42.574Z,2.43
2018-04-14T16:28:12.264Z,2.33
2018-04-14T16:30:41.572Z,2.07
2018-04-14T16:33:10.485Z,1.90
2018-04-14T16:35:43.472Z,2.47
2018-04-14T16:38:12.369Z,1.80
2018-04-14T16:40:41.764Z,1.90
2018-04-14T16:43:10.916Z,2.00
2018-04-14T16:45:40.277Z,1.90
2018-04-14T16:48:09.497Z,1.63
2018-04-14T16:50:40.232Z,2.08
2018-04-14T16:53:09.647Z,1.67
2018-04-14T16:55:39.405Z,1.90
2018-04-14T16:58:09.002Z,1.33
2018-04-14T17:00:38.704Z,1.43
2018-04-14T17:03:08.079Z,1.53
2018-04-14T17:05:37.243Z,1.95
2018-04-14T17:08:06.220Z,28.20
2018-04-14T17:10:37.049Z,34.93
2018-04-14T17:13:06.264Z,35.10
2018-04-14T17:15:35.319Z,33.47
2018-04-14T17:18:03.984Z,36.40
2018-04-14T17:20:32.926Z,40.35
2018-04-14T17:23:01.613Z,36.80
2018-04-14T17:25:30.997Z,37.53
2018-04-14T17:27:59.481Z,39.00
2018-04-14T17:30:27.905Z,38.43
2018-04-14T17:32:56.346Z,42.90
2018-04-14T17:35:24.783Z,45.80
2018-04-14T17:37:53.150Z,40.13
2018-04-14T17:40:21.700Z,35.40
2018-04-14T17:42:51.098Z,33.70
2018-04-14T17:45:19.594Z,33.97
2018-04-14T17:47:48.803Z,38.67
2018-04-14T17:50:18.074Z,32.00
2018-04-14T17:52:46.600Z,38.00
2018-04-14T17:55:14.925Z,36.53
2018-04-14T17:57:43.568Z,38.70
2018-04-14T18:00:12.371Z,42.38
2018-04-14T18:02:41.258Z,38.60
2018-04-14T18:05:10.314Z,19.00
2018-04-14T18:07:39.624Z,11.97
2018-04-14T18:10:09.088Z,8.73
2018-04-14T18:12:38.149Z,10.37
2018-04-14T18:15:08.075Z,8.63
2018-04-14T18:17:37.172Z,10.37
2018-04-14T18:20:05.927Z,9.80
2018-04-14T18:22:35.456Z,9.97
2018-04-14T18:25:04.075Z,6.10
2018-04-14T18:27:32.650Z,6.50
2018-04-14T18:30:01.103Z,7.80
2018-04-14T18:32:29.528Z,8.50
2018-04-14T18:34:57.885Z,9.70
2018-04-14T18:37:26.465Z,9.60
2018-04-14T18:39:54.827Z,8.87
2018-04-14T18:42:23.256Z,8.77
2018-04-14T18:44:51.739Z,8.20
2018-04-14T18:47:21.012Z,9.20
2018-04-14T18:49:49.415Z,9.00
2018-04-14T18:52:17.822Z,10.03
2018-04-14T18:54:46.472Z,8.10
2018-04-14T18:57:15.153Z,6.60
2018-04-14T18:59:43.855Z,6.40
2018-04-14T19:02:13.145Z,8.60
2018-04-14T19:04:42.592Z,8.67
2018-04-14T19:07:11.910Z,6.77
2018-04-14T19:09:41.249Z,8.80
2018-04-14T19:12:10.841Z,8.50
2018-04-14T19:14:40.360Z,10.30
2018-04-14T19:17:09.024Z,9.17
2018-04-14T19:19:38.514Z,7.90
2018-04-14T19:22:07.819Z,9.32
2018-04-14T19:24:36.544Z,6.60
2018-04-14T19:27:06.137Z,4.87
2018-04-14T19:29:34.829Z,3.17
2018-04-14T19:32:04.311Z,3.13
2018-04-14T19:34:32.835Z,3.50
2018-04-14T19:37:02.061Z,2.60
2018-04-14T19:39:30.476Z,4.13
2018-04-14T19:41:58.835Z,3.40
2018-04-14T19:44:28.002Z,5.80
2018-04-14T19:46:56.355Z,7.40
2018-04-14T19:49:24.753Z,7.00
2018-04-14T19:51:53.088Z,7.00
2018-04-14T19:54:21.703Z,5.83
2018-04-14T19:56:50.029Z,5.63
2018-04-14T19:59:20.074Z,6.40
2018-04-14T20:01:48.563Z,6.60
2018-04-14T20:04:16.901Z,5.87
2018-04-14T20:06:45.576Z,6.40
2018-04-14T20:09:14.223Z,9.70
2018-04-14T20:11:43.548Z,6.33
2018-04-14T20:14:12.300Z,6.20
2018-04-14T20:16:40.959Z,7.40
2018-04-14T20:19:10.379Z,7.93
2018-04-14T20:21:39.748Z,8.27
2018-04-14T20:24:08.308Z,8.97
2018-04-14T20:26:38.021Z,8.57
2018-04-14T20:29:06.802Z,8.00
2018-04-14T20:31:36.241Z,9.43
2018-04-14T20:34:04.978Z,4.80
2018-04-14T20:36:33.398Z,5.97
2018-04-14T20:39:02.059Z,8.47
2018-04-14T20:41:30.450Z,6.83
2018-04-14T20:43:59.876Z,4.20
2018-04-14T20:46:28.248Z,5.40
2018-04-14T20:48:56.616Z,5.80
2018-04-14T20:51:24.974Z,5.37
2018-04-14T20:53:54.075Z,5.47
2018-04-14T20:56:23.861Z,5.97
2018-04-14T20:58:53.064Z,6.30
2018-04-14T21:01:21.385Z,7.30
2018-04-14T21:03:49.742Z,9.07
2018-04-14T21:06:18.115Z,7.10
2018-04-14T21:08:46.760Z,5.30
2018-04-14T21:11:15.806Z,4.00
2018-04-14T21:13:45.471Z,2.80
2018-04-14T21:16:15.494Z,2.90
2018-04-14T21:18:46.591Z,2.57
2018-04-14T21:21:16.951Z,2.70
2018-04-14T21:23:45.619Z,3.13
2018-04-14T21:26:14.296Z,3.67
2018-04-14T21:28:42.932Z,3.70
2018-04-14T21:31:12.046Z,3.70
2018-04-14T21:33:41.619Z,4.40
2018-04-14T21:36:11.149Z,4.23
2018-04-14T21:38:39.982Z,3.73
2018-04-14T21:41:09.601Z,3.53
2018-04-14T21:43:38.556Z,4.10
2018-04-14T21:46:07.286Z,3.60
2018-04-14T21:48:36.186Z,2.93
2018-04-14T21:51:04.837Z,3.53
2018-04-14T21:53:34.112Z,3.20
2018-04-14T21:56:02.728Z,3.00
2018-04-14T21:58:31.799Z,3.80
2018-04-14T22:01:00.127Z,4.10
2018-04-14T22:03:29.261Z,3.70
2018-04-14T22:05:57.571Z,3.67
2018-04-14T22:08:25.947Z,3.13
2018-04-14T22:10:54.242Z,4.53
2018-04-14T22:13:22.569Z,3.60
2018-04-14T22:15:50.867Z,3.23
2018-04-14T22:18:19.177Z,3.63
2018-04-14T22:20:47.804Z,3.90
2018-04-14T22:23:16.498Z,3.90
2018-04-14T22:25:45.964Z,3.67
2018-04-14T22:28:15.098Z,4.00
2018-04-14T22:30:43.750Z,4.13
2018-04-14T22:33:13.161Z,4.10
2018-04-14T22:35:41.732Z,3.50
2018-04-14T22:38:10.222Z,3.90
2018-04-14T22:40:38.972Z,4.53
2018-04-14T22:43:07.713Z,4.10
2018-04-14T22:45:36.524Z,4.00
2018-04-14T22:48:06.183Z,4.30
2018-04-14T22:50:35.507Z,3.90
2018-04-14T22:53:03.982Z,4.17
2018-04-14T22:55:32.600Z,4.70
2018-04-14T22:58:01.947Z,3.90
2018-04-14T23:00:30.435Z,3.50
2018-04-14T23:02:58.913Z,3.33
2018-04-14T23:05:27.271Z,3.47
2018-04-14T23:07:56.436Z,4.12
2018-04-14T23:10:24.761Z,4.87
2018-04-14T23:12:53.174Z,3.27
2018-04-14T23:15:21.507Z,4.00
2018-04-14T23:17:50.014Z,3.23
2018-04-14T23:20:19.694Z,3.60
2018-04-14T23:22:48.037Z,3.70
2018-04-14T23:25:17.955Z,3.07
2018-04-14T23:27:47.824Z,3.35
2018-04-14T23:30:16.387Z,3.03
2018-04-14T23:32:44.984Z,2.60
2018-04-14T23:35:13.680Z,3.50
2018-04-14T23:37:42.392Z,3.62
2018-04-14T23:40:10.950Z,3.70
2018-04-14T23:42:40.313Z,3.43
2018-04-14T23:45:09.114Z,3.40
2018-04-14T23:47:37.841Z,3.93
2018-04-14T23:50:07.760Z,4.30
2018-04-14T23:52:37.143Z,3.93
2018-04-14T23:55:07.819Z,3.97
2018-04-14T23:57:36.997Z,4.95
